East Swanzey, New Hampshire
Current Conditions -  °F | °C
As of 1:35 AM on Wednesday 28 Jan 2015 (Local Time) from KEEN Reporting Station
Overcast Overcast  
Wind Chill: -4°   Ceiling: 7000
Heat Index: 12°   Visibility: 10mi
Dew Point:   Wind: 15mph
Humidity: 62%   Direction: 360°N
Pressure: 29.75"   Gusts: 18mph
Location:  42.8618°N, 72.2452°W
Report Text: KEEN 280635Z AUTO 36013G16KT 10SM OVC070 M11/M17 A2975 RMK AO1
Loading
Personal Weather Stations






























Interactive Weather Map New forecast layout! Learn more

10-Day Weather Forecast

Advertisements
Track Severe Weather on mobile